Time;durP1;ratioP1;P1;durP2;ratioP2;P2;SDS_P1;SDS_P2;PMS_P1;PMS_P2;Temp;Humidity;BMP_temperature;BMP_pressure;BME280_temperature;BME280_humidity;BME280_pressure;Samples;Min_cycle;Max_cycle;Signal;HPM_P1;HPM_P2
2023/06/16 00:02:12;;;;;;;1.80;1.70;;;22.80;74.50;;;;;;5007825;28;20107;-78
2023/06/16 00:04:39;;;;;;;1.60;1.55;;;22.80;74.50;;;;;;5007514;28;20042;-78
2023/06/16 00:07:06;;;;;;;1.48;1.38;;;22.80;74.50;;;;;;5005345;28;20040;-78
2023/06/16 00:09:31;;;;;;;1.48;1.40;;;22.80;75.30;;;;;;5020204;28;20125;-78
2023/06/16 00:11:57;;;;;;;1.30;1.30;;;22.80;74.60;;;;;;5004563;28;20538;-79
2023/06/16 00:14:23;;;;;;;1.90;1.80;;;22.80;74.50;;;;;;5003993;28;20050;-78
2023/06/16 00:16:49;;;;;;;1.50;1.50;;;22.80;74.50;;;;;;5005584;28;20042;-78
2023/06/16 00:19:15;;;;;;;1.67;1.23;;;22.80;74.50;;;;;;5003110;28;20518;-78
2023/06/16 00:21:42;;;;;;;1.60;1.50;;;22.80;74.50;;;;;;5006199;28;20041;-78
2023/06/16 00:24:08;;;;;;;1.52;1.40;;;22.80;74.50;;;;;;5020103;28;20132;-78
2023/06/16 00:26:34;;;;;;;1.60;1.50;;;22.80;74.50;;;;;;5004087;28;20530;-78
2023/06/16 00:29:01;;;;;;;1.33;1.33;;;22.80;74.40;;;;;;5003986;28;20050;-79
2023/06/16 00:31:26;;;;;;;1.67;1.58;;;22.80;74.40;;;;;;5004842;28;20037;-77
2023/06/16 00:33:53;;;;;;;1.60;1.50;;;22.80;74.40;;;;;;5001082;28;20103;-78
2023/06/16 00:36:19;;;;;;;1.45;1.45;;;22.80;75.20;;;;;;5006142;28;20049;-78
2023/06/16 00:38:45;;;;;;;1.70;1.70;;;22.80;74.40;;;;;;5007781;28;20054;-78
2023/06/16 00:41:11;;;;;;;1.45;1.45;;;22.80;74.40;;;;;;5018279;28;20049;-78
2023/06/16 00:43:36;;;;;;;1.15;1.15;;;22.70;74.20;;;;;;5002108;28;20054;-78
2023/06/16 00:46:02;;;;;;;2.05;1.30;;;22.70;74.30;;;;;;5005234;28;20081;-78
2023/06/16 00:48:27;;;;;;;1.30;1.30;;;22.70;74.30;;;;;;5003400;28;20068;-78
2023/06/16 00:50:54;;;;;;;1.30;1.30;;;22.80;74.30;;;;;;5005639;28;20073;-79
2023/06/16 00:53:20;;;;;;;4.03;1.70;;;22.70;74.20;;;;;;5000632;28;20046;-79
2023/06/16 00:55:46;;;;;;;1.30;1.30;;;22.70;74.20;;;;;;5002468;28;20049;-80
2023/06/16 00:58:12;;;;;;;1.13;1.13;;;22.70;74.20;;;;;;5006496;28;20084;-79
2023/06/16 01:00:37;;;;;;;1.50;1.50;;;22.70;74.20;;;;;;4989663;28;20034;-78
2023/06/16 01:03:04;;;;;;;1.40;1.40;;;22.70;74.20;;;;;;5001445;28;20037;-79
2023/06/16 01:05:30;;;;;;;1.48;1.48;;;22.70;74.20;;;;;;5017178;28;20097;-79
2023/06/16 01:08:01;;;;;;;1.50;1.50;;;22.70;74.40;;;;;;5002557;28;20651;-79
2023/06/16 01:10:45;;;;;;;1.40;1.40;;;22.80;74.40;;;;;;4997940;28;20943;-79
2023/06/16 01:13:17;;;;;;;1.20;1.20;;;22.70;74.20;;;;;;4988438;28;20133;-79
2023/06/16 01:15:44;;;;;;;1.70;1.60;;;22.70;74.30;;;;;;5002239;28;20571;-78
2023/06/16 01:18:10;;;;;;;1.20;1.20;;;22.70;74.30;;;;;;5006010;28;20048;-78
2023/06/16 01:20:51;;;;;;;1.42;1.33;;;22.70;74.30;;;;;;5005479;28;20041;-79
2023/06/16 01:23:35;;;;;;;1.23;1.23;;;22.70;74.20;;;;;;4998659;28;20042;-79
2023/06/16 01:26:01;;;;;;;;;;;22.70;74.20;;;;;;5002713;28;20045;-79
2023/06/16 01:28:27;;;;;;;1.00;1.00;;;22.70;74.20;;;;;;5002924;28;20047;-79
2023/06/16 01:30:53;;;;;;;5.78;1.30;;;22.70;74.10;;;;;;5003860;28;20104;-79
2023/06/16 01:33:20;;;;;;;1.10;1.10;;;22.70;74.90;;;;;;5002666;28;20044;-79
2023/06/16 01:35:46;;;;;;;1.10;1.10;;;22.70;74.10;;;;;;5002434;28;20062;-79
2023/06/16 01:38:12;;;;;;;1.38;1.38;;;22.70;74.10;;;;;;5016999;28;20072;-79
2023/06/16 01:40:38;;;;;;;1.30;1.30;;;22.70;74.00;;;;;;5003268;28;20045;-78
2023/06/16 01:43:03;;;;;;;1.52;1.52;;;22.70;74.10;;;;;;5020317;28;20756;-79
2023/06/16 01:45:29;;;;;;;1.52;1.52;;;22.70;74.00;;;;;;5001381;28;20034;-79
2023/06/16 01:47:55;;;;;;;1.25;1.25;;;22.70;74.00;;;;;;5002293;28;20054;-79
2023/06/16 01:50:20;;;;;;;1.40;1.40;;;22.70;74.00;;;;;;5003049;28;20554;-79
2023/06/16 01:52:46;;;;;;;1.40;1.40;;;22.70;74.10;;;;;;4999989;28;20042;-79
2023/06/16 01:55:11;;;;;;;1.20;1.20;;;22.70;74.90;;;;;;5001632;28;20046;-79
2023/06/16 01:57:37;;;;;;;2.20;1.40;;;22.70;74.00;;;;;;5004328;28;20088;-78
2023/06/16 02:00:08;;;;;;;1.30;1.23;;;22.70;74.00;;;;;;5003579;28;20533;-78
2023/06/16 02:02:33;;;;;;;1.15;1.15;;;22.70;74.00;;;;;;5019035;28;20046;-78
2023/06/16 02:04:59;;;;;;;0.90;0.90;;;22.70;74.00;;;;;;5000245;28;20045;-79
2023/06/16 02:07:32;;;;;;;1.00;1.00;;;22.70;73.80;;;;;;4999901;28;20044;-79
2023/06/16 02:09:58;;;;;;;1.10;1.10;;;22.70;73.80;;;;;;4988872;28;20045;-79
2023/06/16 02:12:24;;;;;;;1.20;1.20;;;22.70;73.80;;;;;;5003312;28;20049;-79
2023/06/16 02:14:50;;;;;;;1.35;1.30;;;22.70;73.80;;;;;;5001909;28;20073;-78
2023/06/16 02:17:16;;;;;;;1.05;1.05;;;22.70;73.80;;;;;;5003142;28;20045;-78
2023/06/16 02:19:42;;;;;;;1.10;1.10;;;22.70;73.80;;;;;;5001511;28;20045;-78
2023/06/16 02:22:08;;;;;;;1.20;1.20;;;22.70;73.80;;;;;;5001667;28;20041;-79
2023/06/16 02:24:35;;;;;;;1.10;1.10;;;22.70;73.70;;;;;;5001957;28;20496;-78
2023/06/16 02:27:01;;;;;;;1.23;1.20;;;22.70;73.70;;;;;;5005206;28;20045;-79
2023/06/16 02:29:27;;;;;;;1.20;1.20;;;22.70;73.60;;;;;;5002511;28;20137;-79
2023/06/16 02:31:52;;;;;;;1.05;1.05;;;22.70;73.60;;;;;;5001514;28;20069;-79
2023/06/16 02:34:18;;;;;;;1.00;1.00;;;22.70;73.50;;;;;;4998186;28;20118;-78
2023/06/16 02:36:43;;;;;;;1.00;1.00;;;22.70;73.50;;;;;;5002358;28;20507;-78
2023/06/16 02:39:10;;;;;;;1.05;1.05;;;22.70;73.60;;;;;;5002746;28;20042;-78
2023/06/16 02:41:36;;;;;;;1.00;1.00;;;22.70;73.40;;;;;;5005313;28;20034;-78
2023/06/16 02:44:01;;;;;;;1.10;1.10;;;22.70;73.40;;;;;;5003817;28;20038;-78
2023/06/16 02:46:27;;;;;;;1.38;1.33;;;22.70;73.40;;;;;;5005076;28;20069;-79
2023/06/16 02:48:52;;;;;;;1.20;1.20;;;22.70;73.40;;;;;;5001438;28;20061;-78
2023/06/16 02:51:18;;;;;;;1.10;1.10;;;22.70;73.30;;;;;;5002221;28;20054;-79
2023/06/16 02:53:45;;;;;;;1.20;1.10;;;22.70;73.30;;;;;;5003254;28;20073;-79
2023/06/16 02:56:11;;;;;;;0.90;0.90;;;22.70;73.30;;;;;;5002920;28;20539;-78
2023/06/16 02:58:37;;;;;;;0.90;0.90;;;22.70;73.30;;;;;;5013254;28;20042;-78
2023/06/16 03:01:04;;;;;;;1.33;1.33;;;22.70;73.40;;;;;;5000322;28;20061;-78
2023/06/16 03:03:30;;;;;;;1.20;1.20;;;22.70;73.30;;;;;;5002889;28;21264;-79
2023/06/16 03:05:58;;;;;;;1.13;1.13;;;22.70;73.30;;;;;;5003726;28;20404;-78
2023/06/16 03:08:24;;;;;;;1.08;1.08;;;22.70;73.30;;;;;;5004146;28;20058;-79
2023/06/16 03:10:51;;;;;;;1.08;1.08;;;22.70;73.30;;;;;;5016457;28;20056;-78
2023/06/16 03:13:17;;;;;;;1.00;1.00;;;22.70;73.30;;;;;;5002602;28;20053;-78
2023/06/16 03:15:43;;;;;;;1.17;1.08;;;22.70;73.20;;;;;;5002868;28;20045;-78
2023/06/16 03:18:09;;;;;;;1.05;1.05;;;22.70;73.10;;;;;;5003821;28;20080;-78
2023/06/16 03:20:35;;;;;;;1.20;1.20;;;22.70;73.10;;;;;;5018662;28;20074;-78
2023/06/16 03:23:01;;;;;;;1.00;1.00;;;22.70;73.10;;;;;;5001432;28;20041;-79
2023/06/16 03:25:26;;;;;;;1.02;1.02;;;22.70;73.20;;;;;;5003724;28;20041;-80
2023/06/16 03:27:52;;;;;;;1.15;1.15;;;22.70;73.00;;;;;;5000365;28;20542;-79
2023/06/16 03:30:18;;;;;;;1.40;1.30;;;22.70;73.20;;;;;;5004745;28;20046;-79
2023/06/16 03:32:44;;;;;;;1.02;1.02;;;22.70;73.10;;;;;;5004428;28;20052;-79
2023/06/16 03:35:09;;;;;;;0.95;0.95;;;22.70;73.10;;;;;;5000656;28;20042;-79
2023/06/16 03:37:35;;;;;;;0.90;0.90;;;22.70;73.00;;;;;;5003161;28;20062;-78
2023/06/16 03:40:05;;;;;;;0.90;0.90;;;22.70;73.00;;;;;;5003366;28;20405;-80
2023/06/16 03:42:32;;;;;;;1.10;1.10;;;22.70;73.00;;;;;;4997575;28;20381;-78
2023/06/16 03:44:58;;;;;;;0.80;0.80;;;22.70;73.20;;;;;;5003462;28;20038;-79
2023/06/16 03:47:24;;;;;;;1.00;1.00;;;22.60;73.10;;;;;;5002765;28;20129;-78
2023/06/16 03:49:49;;;;;;;0.95;0.95;;;22.70;73.50;;;;;;5002273;28;20042;-78
2023/06/16 03:52:15;;;;;;;1.33;1.33;;;22.70;73.10;;;;;;5002928;28;20042;-78
2023/06/16 03:54:40;;;;;;;0.82;0.82;;;22.70;73.20;;;;;;4998945;28;20027;-78
2023/06/16 03:57:06;;;;;;;0.90;0.90;;;22.70;73.30;;;;;;5002459;28;20053;-78
2023/06/16 03:59:31;;;;;;;1.00;1.00;;;22.70;73.20;;;;;;5003846;28;20038;-79
2023/06/16 04:01:58;;;;;;;0.85;0.85;;;22.70;73.20;;;;;;5002075;28;20509;-79
2023/06/16 04:04:25;;;;;;;0.80;0.80;;;22.70;73.20;;;;;;5014642;28;20089;-78
2023/06/16 04:06:51;;;;;;;1.08;1.08;;;22.70;73.40;;;;;;5001520;28;20034;-79
2023/06/16 04:09:17;;;;;;;1.00;1.00;;;22.70;74.10;;;;;;5003934;28;20519;-78
2023/06/16 04:11:42;;;;;;;1.38;1.27;;;22.70;73.20;;;;;;5002843;28;20053;-78
2023/06/16 04:14:09;;;;;;;1.10;1.00;;;22.70;73.20;;;;;;4999936;28;20495;-79
2023/06/16 04:16:35;;;;;;;1.20;1.20;;;22.70;73.10;;;;;;5000231;28;20030;-79
2023/06/16 04:19:03;;;;;;;2.20;2.10;;;22.70;73.10;;;;;;5006619;28;20040;-78
2023/06/16 04:21:28;;;;;;;7.70;7.00;;;22.60;71.70;;;;;;5006829;28;20403;-78
2023/06/16 04:23:54;;;;;;;9.93;9.05;;;22.00;67.10;;;;;;5000431;28;20569;-80
2023/06/16 04:26:22;;;;;;;11.32;10.13;;;21.00;69.60;;;;;;4999827;28;20038;-79
2023/06/16 04:28:53;;;;;;;10.98;10.07;;;20.20;72.10;;;;;;4998504;28;20649;-78
2023/06/16 04:31:22;;;;;;;11.43;10.43;;;19.80;73.60;;;;;;5001813;28;20511;-79
2023/06/16 04:33:48;;;;;;;11.27;10.27;;;19.60;74.40;;;;;;5000024;28;20034;-78
2023/06/16 04:36:14;;;;;;;10.23;9.48;;;19.60;74.70;;;;;;5006835;28;20129;-78
2023/06/16 04:38:40;;;;;;;14.90;9.02;;;19.50;74.80;;;;;;5004414;28;20037;-78
2023/06/16 04:41:06;;;;;;;10.57;9.48;;;19.40;75.40;;;;;;5004840;28;20042;-79
2023/06/16 04:43:31;;;;;;;10.55;9.45;;;19.30;76.80;;;;;;5005833;28;20392;-79
2023/06/16 04:45:58;;;;;;;10.68;9.77;;;19.20;76.50;;;;;;5007551;28;20045;-78
2023/06/16 04:48:25;;;;;;;10.27;9.20;;;19.10;76.90;;;;;;5007985;28;20054;-78
2023/06/16 04:50:53;;;;;;;11.25;10.23;;;19.00;77.20;;;;;;5005973;28;20046;-78
2023/06/16 04:53:18;;;;;;;10.52;9.68;;;18.90;77.70;;;;;;5001314;28;20075;-79
2023/06/16 04:55:44;;;;;;;11.32;10.32;;;18.80;78.10;;;;;;4986328;28;20065;-79
2023/06/16 04:58:10;;;;;;;12.13;11.07;;;18.90;77.60;;;;;;4998869;28;20476;-79
2023/06/16 05:00:35;;;;;;;11.55;10.48;;;18.90;77.90;;;;;;5001120;28;20046;-78
2023/06/16 05:03:01;;;;;;;11.10;10.20;;;18.90;78.10;;;;;;5001177;28;20528;-78
2023/06/16 05:05:26;;;;;;;11.13;10.02;;;18.70;78.00;;;;;;5006383;28;20046;-78
2023/06/16 05:07:52;;;;;;;11.57;10.55;;;18.60;78.70;;;;;;5006559;28;20049;-77
2023/06/16 05:10:18;;;;;;;12.32;10.75;;;18.60;79.40;;;;;;5007604;28;20045;-81
2023/06/16 05:12:43;;;;;;;11.57;10.57;;;18.50;79.70;;;;;;5007137;28;20479;-80
2023/06/16 05:15:09;;;;;;;11.40;10.45;;;18.60;79.50;;;;;;5004989;28;20125;-80
2023/06/16 05:17:37;;;;;;;11.90;10.90;;;18.60;79.80;;;;;;5008872;28;20054;-83
2023/06/16 05:20:03;;;;;;;12.70;11.40;;;18.50;79.80;;;;;;4993100;28;21182;-81
2023/06/16 05:22:28;;;;;;;12.50;11.15;;;18.60;80.10;;;;;;5001737;28;20756;-81
2023/06/16 05:24:54;;;;;;;12.55;11.45;;;18.60;80.50;;;;;;5002119;28;20058;-80
2023/06/16 05:27:23;;;;;;;12.52;11.32;;;18.50;80.70;;;;;;5004173;28;20145;-78
2023/06/16 05:29:52;;;;;;;13.02;11.73;;;18.50;80.60;;;;;;5008597;28;20095;-78
2023/06/16 05:32:19;;;;;;;12.90;11.60;;;18.50;81.00;;;;;;5001567;28;20566;-79
2023/06/16 05:34:46;;;;;;;12.75;11.55;;;18.50;80.80;;;;;;5001091;28;20131;-78
2023/06/16 05:37:15;;;;;;;13.15;11.95;;;18.50;80.90;;;;;;5006844;28;20503;-78
2023/06/16 05:39:42;;;;;;;14.32;13.20;;;18.50;80.80;;;;;;5002401;28;20064;-79
2023/06/16 05:42:09;;;;;;;13.70;12.30;;;18.50;81.30;;;;;;4985782;28;20042;-79
2023/06/16 05:44:34;;;;;;;13.00;11.65;;;18.60;81.10;;;;;;5002509;28;20074;-79
2023/06/16 05:47:00;;;;;;;13.60;11.70;;;18.60;81.10;;;;;;5005164;28;20443;-79
2023/06/16 05:49:25;;;;;;;13.20;11.75;;;18.60;81.50;;;;;;5000928;28;20046;-80
2023/06/16 05:51:51;;;;;;;13.20;12.00;;;18.60;81.60;;;;;;5001493;28;20042;-80
2023/06/16 05:54:17;;;;;;;13.20;11.93;;;18.60;81.70;;;;;;5003952;28;20049;-78
2023/06/16 05:56:42;;;;;;;13.93;12.63;;;18.50;81.60;;;;;;5003080;28;20045;-79
2023/06/16 05:59:08;;;;;;;13.18;11.95;;;18.60;81.90;;;;;;5003645;28;20711;-78
2023/06/16 06:01:34;;;;;;;14.23;12.80;;;18.70;81.80;;;;;;5004887;28;20042;-77
2023/06/16 06:03:59;;;;;;;13.90;12.52;;;18.70;81.40;;;;;;5000826;28;20073;-79
2023/06/16 06:06:25;;;;;;;13.18;11.95;;;18.90;81.10;;;;;;5005191;28;20050;-78
2023/06/16 06:08:51;;;;;;;12.02;10.95;;;18.90;80.80;;;;;;5005591;28;20074;-78
2023/06/16 06:11:16;;;;;;;13.90;12.38;;;18.90;81.00;;;;;;5003581;28;20049;-78
2023/06/16 06:13:42;;;;;;;13.07;11.68;;;19.00;80.50;;;;;;5000033;28;20044;-78
2023/06/16 06:16:07;;;;;;;12.20;11.10;;;19.00;80.60;;;;;;5003912;28;20530;-77
2023/06/16 06:18:33;;;;;;;11.95;10.73;;;18.90;81.00;;;;;;5004872;28;20060;-84
2023/06/16 06:20:58;;;;;;;12.10;10.93;;;19.10;80.90;;;;;;5017370;28;20049;-83
2023/06/16 06:23:24;;;;;;;11.77;10.73;;;19.10;80.70;;;;;;5004501;28;20519;-84
2023/06/16 06:25:50;;;;;;;13.00;11.80;;;19.20;81.10;;;;;;5001409;28;20057;-84
2023/06/16 06:28:15;;;;;;;12.32;11.07;;;19.40;79.70;;;;;;5004113;28;20045;-83
2023/06/16 06:30:41;;;;;;;12.13;10.05;;;19.50;79.40;;;;;;5000956;28;20054;-83
2023/06/16 06:33:06;;;;;;;10.82;9.73;;;19.60;79.00;;;;;;4997451;28;20042;-83
2023/06/16 06:35:32;;;;;;;11.52;9.23;;;19.70;78.40;;;;;;5002406;28;20050;-83
2023/06/16 06:37:58;;;;;;;9.07;7.95;;;19.90;77.90;;;;;;5001123;28;20563;-83
2023/06/16 06:40:23;;;;;;;8.93;8.10;;;19.90;77.70;;;;;;5015093;28;20049;-83
2023/06/16 06:42:49;;;;;;;8.10;7.50;;;20.00;77.50;;;;;;5001972;28;20048;-81
2023/06/16 06:45:15;;;;;;;8.50;7.70;;;20.10;77.20;;;;;;5019114;28;20069;-82
2023/06/16 06:47:40;;;;;;;8.18;7.60;;;20.10;77.00;;;;;;5021333;28;20566;-83
2023/06/16 06:50:06;;;;;;;7.53;6.93;;;20.20;76.70;;;;;;4999981;28;20060;-82
2023/06/16 06:52:32;;;;;;;7.85;7.10;;;20.20;76.40;;;;;;5002057;28;20113;-82
2023/06/16 06:54:58;;;;;;;7.32;6.88;;;20.30;76.20;;;;;;5001328;28;20038;-83
2023/06/16 06:57:23;;;;;;;8.65;7.80;;;20.40;75.90;;;;;;5001349;28;20066;-83
2023/06/16 06:59:49;;;;;;;7.43;6.15;;;20.40;75.70;;;;;;5008426;28;20210;-79
2023/06/16 07:02:16;;;;;;;6.93;6.32;;;20.40;75.60;;;;;;5005193;28;20052;-84
2023/06/16 07:04:42;;;;;;;7.32;6.72;;;20.50;75.60;;;;;;4990144;28;20728;-84
2023/06/16 07:07:08;;;;;;;6.60;6.10;;;20.50;75.50;;;;;;4998451;28;20504;-84
2023/06/16 07:09:34;;;;;;;6.70;6.20;;;20.50;75.50;;;;;;5015746;28;20065;-84
2023/06/16 07:12:00;;;;;;;6.30;5.70;;;20.60;75.40;;;;;;5016604;28;20038;-83
2023/06/16 07:14:26;;;;;;;6.30;5.90;;;20.60;75.40;;;;;;5002791;28;20061;-85
2023/06/16 07:16:52;;;;;;;5.38;4.97;;;20.60;76.00;;;;;;5001794;28;20096;-85
2023/06/16 07:19:17;;;;;;;5.97;5.47;;;20.70;75.00;;;;;;4999629;28;20054;-84
2023/06/16 07:21:43;;;;;;;5.60;5.20;;;20.70;75.00;;;;;;5000561;28;20038;-85
2023/06/16 07:24:09;;;;;;;5.72;5.32;;;20.70;74.80;;;;;;5001060;28;20492;-86
2023/06/16 07:26:34;;;;;;;5.32;4.93;;;20.70;74.70;;;;;;5003815;28;20571;-86
2023/06/16 07:29:00;;;;;;;5.72;5.28;;;20.70;74.60;;;;;;4995630;28;20045;-85
2023/06/16 07:31:27;;;;;;;4.85;4.55;;;20.80;74.60;;;;;;5001879;28;20747;-85
2023/06/16 07:33:52;;;;;;;5.30;4.90;;;20.80;74.40;;;;;;5014393;28;20034;-84
2023/06/16 07:36:18;;;;;;;4.95;4.55;;;20.80;74.30;;;;;;5000046;28;20053;-84
2023/06/16 07:38:43;;;;;;;4.80;4.50;;;20.90;74.30;;;;;;5004319;28;20045;-84
2023/06/16 07:41:09;;;;;;;4.78;4.47;;;20.90;74.20;;;;;;4998150;28;20038;-85
2023/06/16 07:43:35;;;;;;;5.45;4.93;;;20.90;74.10;;;;;;4983561;28;20503;-84
2023/06/16 07:46:01;;;;;;;4.70;4.50;;;21.00;74.00;;;;;;5001536;28;20129;-83
2023/06/16 07:48:26;;;;;;;4.80;4.50;;;21.00;74.00;;;;;;5000589;28;20114;-83
2023/06/16 07:50:53;;;;;;;4.50;4.20;;;21.00;74.00;;;;;;5001779;28;20042;-76
2023/06/16 07:53:20;;;;;;;4.05;3.72;;;21.00;74.00;;;;;;5003364;28;20406;-84
2023/06/16 07:55:45;;;;;;;4.10;3.80;;;21.00;74.00;;;;;;5022254;28;20049;-83
2023/06/16 07:58:11;;;;;;;3.60;3.40;;;21.10;73.90;;;;;;5008441;28;20041;-83
2023/06/16 08:00:37;;;;;;;3.17;3.00;;;21.10;73.90;;;;;;5007242;28;20499;-82
2023/06/16 08:03:02;;;;;;;3.15;2.95;;;21.10;74.00;;;;;;5010848;28;20042;-82
2023/06/16 08:05:28;;;;;;;3.40;3.20;;;21.10;73.80;;;;;;5008169;28;20038;-81
2023/06/16 08:07:53;;;;;;;3.80;3.50;;;21.10;73.80;;;;;;5006353;28;20033;-80
2023/06/16 08:10:20;;;;;;;3.47;3.20;;;21.10;73.60;;;;;;5008243;28;20480;-83
2023/06/16 08:12:51;;;;;;;3.78;3.40;;;21.10;73.70;;;;;;4990324;28;20042;-83
2023/06/16 08:15:18;;;;;;;2.83;2.63;;;21.20;73.60;;;;;;5006799;28;20038;-83
2023/06/16 08:17:44;;;;;;;3.35;3.10;;;21.20;73.70;;;;;;5004802;28;20026;-83
2023/06/16 08:20:10;;;;;;;3.10;2.90;;;21.20;73.40;;;;;;5001924;28;20034;-83
2023/06/16 08:22:37;;;;;;;3.47;3.28;;;21.30;73.40;;;;;;5001943;28;20045;-84
2023/06/16 08:25:04;;;;;;;2.90;2.67;;;21.20;73.50;;;;;;5003155;28;20397;-83
2023/06/16 08:27:29;;;;;;;3.05;2.85;;;21.30;73.50;;;;;;5017841;28;20056;-83
2023/06/16 08:29:55;;;;;;;3.28;3.08;;;21.30;73.40;;;;;;5007767;28;20492;-80
2023/06/16 08:32:21;;;;;;;2.60;2.50;;;21.30;73.30;;;;;;4998087;28;20048;-83
2023/06/16 08:34:46;;;;;;;2.33;2.22;;;21.30;73.30;;;;;;5018925;28;20539;-75
2023/06/16 08:37:12;;;;;;;3.83;3.05;;;21.40;73.30;;;;;;5003516;28;20091;-75
2023/06/16 08:39:37;;;;;;;2.30;2.20;;;21.40;73.40;;;;;;5000395;28;20530;-75
2023/06/16 08:42:03;;;;;;;2.55;2.38;;;21.40;73.30;;;;;;5007252;28;20042;-75
2023/06/16 08:44:29;;;;;;;2.20;2.10;;;21.40;73.50;;;;;;5005407;28;20030;-75
2023/06/16 08:46:54;;;;;;;2.35;2.25;;;21.40;73.30;;;;;;4990202;28;20045;-74
2023/06/16 08:49:20;;;;;;;2.40;2.30;;;21.50;73.30;;;;;;5001611;28;20140;-75
2023/06/16 08:51:49;;;;;;;2.40;2.30;;;21.50;73.40;;;;;;5005719;28;20100;-75
2023/06/16 08:54:14;;;;;;;2.10;2.00;;;21.50;73.40;;;;;;4999836;28;20451;-75
2023/06/16 08:56:41;;;;;;;2.13;2.03;;;21.50;73.40;;;;;;5004464;28;20496;-75
2023/06/16 08:59:07;;;;;;;2.10;2.00;;;21.50;73.50;;;;;;4990671;28;20108;-75
2023/06/16 09:01:33;;;;;;;1.80;1.70;;;21.60;73.30;;;;;;5014018;28;20041;-75
2023/06/16 09:03:59;;;;;;;2.03;1.92;;;21.60;73.40;;;;;;5001690;28;20042;-76
2023/06/16 09:06:25;;;;;;;1.88;1.77;;;21.60;73.50;;;;;;5020900;28;20118;-75
2023/06/16 09:08:52;;;;;;;2.33;2.22;;;21.60;73.60;;;;;;5004685;28;20066;-75
2023/06/16 09:11:24;;;;;;;2.47;2.38;;;21.70;73.50;;;;;;5015331;28;20057;-76
2023/06/16 09:13:51;;;;;;;2.00;1.90;;;21.70;73.50;;;;;;5001315;28;20050;-75
2023/06/16 09:16:18;;;;;;;1.95;1.85;;;21.70;73.70;;;;;;5003044;28;20056;-74
2023/06/16 09:18:44;;;;;;;2.10;2.00;;;21.70;73.70;;;;;;5002739;28;20440;-74
2023/06/16 09:21:11;;;;;;;2.45;1.90;;;21.70;73.50;;;;;;5003061;28;20038;-75
2023/06/16 09:23:38;;;;;;;2.10;2.00;;;21.70;73.50;;;;;;5001433;28;20111;-75
2023/06/16 09:26:13;;;;;;;2.40;2.30;;;21.70;73.70;;;;;;5000743;28;20058;-77
2023/06/16 09:28:39;;;;;;;1.90;1.80;;;21.70;73.80;;;;;;5003284;28;20525;-76
2023/06/16 09:31:06;;;;;;;2.95;2.30;;;21.80;73.50;;;;;;5019098;28;20042;-75
2023/06/16 09:33:32;;;;;;;1.90;1.80;;;21.80;73.60;;;;;;5004071;28;20499;-76
2023/06/16 09:35:58;;;;;;;2.22;2.13;;;21.80;73.60;;;;;;5005429;28;20045;-75
2023/06/16 09:38:23;;;;;;;2.65;2.00;;;21.90;73.20;;;;;;5003681;28;20057;-76
2023/06/16 09:40:49;;;;;;;2.25;2.05;;;21.90;73.00;;;;;;5003265;28;20119;-75
2023/06/16 09:43:14;;;;;;;1.90;1.80;;;21.90;73.10;;;;;;4997859;28;20120;-75
2023/06/16 09:45:40;;;;;;;1.98;1.88;;;21.90;73.20;;;;;;5001822;28;20042;-75
2023/06/16 09:48:08;;;;;;;1.98;1.88;;;21.90;73.10;;;;;;5016614;28;20046;-75
2023/06/16 09:50:34;;;;;;;1.50;1.50;;;21.90;73.30;;;;;;5017810;28;20467;-75
2023/06/16 09:53:03;;;;;;;1.77;1.70;;;21.90;73.40;;;;;;5004368;28;20068;-76
2023/06/16 09:55:28;;;;;;;2.00;1.90;;;21.90;73.30;;;;;;5004758;28;20507;-75
2023/06/16 09:57:55;;;;;;;1.85;1.77;;;21.90;73.40;;;;;;5001738;28;20124;-75
2023/06/16 10:00:20;;;;;;;2.30;1.85;;;21.90;73.40;;;;;;4999468;28;20060;-75
2023/06/16 10:02:48;;;;;;;1.90;1.80;;;21.90;73.30;;;;;;5002366;28;20046;-75
2023/06/16 10:05:15;;;;;;;1.67;1.58;;;21.90;73.00;;;;;;4996756;28;20041;-75
2023/06/16 10:07:45;;;;;;;1.80;1.70;;;22.00;72.90;;;;;;5005398;28;20133;-75
2023/06/16 10:10:11;;;;;;;1.55;1.50;;;22.00;73.10;;;;;;5003032;28;20119;-75
2023/06/16 10:12:37;;;;;;;2.05;1.63;;;22.00;73.00;;;;;;5001487;28;20046;-76
2023/06/16 10:15:03;;;;;;;1.90;1.80;;;22.00;72.90;;;;;;5002664;28;20530;-75
2023/06/16 10:17:32;;;;;;;1.92;1.83;;;22.00;73.00;;;;;;5005419;28;20056;-76
2023/06/16 10:19:58;;;;;;;2.10;1.80;;;22.00;73.20;;;;;;4987584;28;20046;-75
2023/06/16 10:22:23;;;;;;;1.95;1.85;;;22.00;73.00;;;;;;4988172;28;20040;-75
2023/06/16 10:24:49;;;;;;;2.00;1.90;;;22.00;72.70;;;;;;5002738;28;20570;-77
2023/06/16 10:27:14;;;;;;;1.90;1.80;;;22.00;73.60;;;;;;4986561;28;20049;-76
2023/06/16 10:29:40;;;;;;;2.05;1.95;;;22.10;72.80;;;;;;4992905;28;20060;-76
2023/06/16 10:32:10;;;;;;;1.90;1.80;;;22.10;72.80;;;;;;4998283;28;20061;-77
2023/06/16 10:34:46;;;;;;;2.00;1.90;;;22.10;72.90;;;;;;5002414;28;20069;-76
2023/06/16 10:37:13;;;;;;;2.13;1.70;;;22.10;73.00;;;;;;5002560;28;20074;-75
2023/06/16 10:39:47;;;;;;;1.42;1.42;;;22.20;72.70;;;;;;5003276;28;20042;-75
2023/06/16 10:42:14;;;;;;;1.65;1.55;;;22.20;73.20;;;;;;5004033;28;20100;-75
2023/06/16 10:44:40;;;;;;;1.95;1.85;;;22.20;72.50;;;;;;5004657;28;20514;-75
2023/06/16 10:47:08;;;;;;;1.40;1.40;;;22.20;72.50;;;;;;4997216;28;20157;-75
2023/06/16 10:50:06;;;;;;;1.90;1.80;;;22.20;72.60;;;;;;4999305;28;20123;-75
2023/06/16 10:52:34;;;;;;;1.73;1.63;;;22.20;72.60;;;;;;4982207;28;20113;-75
2023/06/16 10:55:16;;;;;;;2.15;2.05;;;22.20;72.60;;;;;;4998837;28;20041;-75
2023/06/16 10:57:42;;;;;;;1.80;1.70;;;22.10;72.50;;;;;;4999788;28;20062;-75
2023/06/16 11:00:11;;;;;;;6.55;2.22;;;22.10;73.50;;;;;;5002391;28;20073;-76
2023/06/16 11:02:59;;;;;;;1.95;1.85;;;22.10;72.70;;;;;;5019062;28;20057;-75
2023/06/16 11:05:36;;;;;;;2.20;2.10;;;22.20;72.60;;;;;;5002230;28;20484;-75
2023/06/16 11:08:02;;;;;;;2.22;2.05;;;22.20;72.70;;;;;;5001000;28;20057;-75
2023/06/16 11:10:28;;;;;;;1.95;1.85;;;22.20;72.60;;;;;;5000546;28;20062;-75
2023/06/16 11:12:54;;;;;;;1.67;1.67;;;22.20;72.80;;;;;;4999746;28;20070;-75
2023/06/16 11:15:19;;;;;;;2.10;2.00;;;22.20;72.60;;;;;;5002251;28;20057;-75
2023/06/16 11:17:47;;;;;;;1.83;1.73;;;22.20;72.50;;;;;;5005167;28;20342;-75
2023/06/16 11:20:13;;;;;;;1.77;1.70;;;22.20;72.60;;;;;;5003638;28;20115;-75
2023/06/16 11:22:38;;;;;;;2.20;2.10;;;22.20;72.40;;;;;;5003054;28;20116;-82
2023/06/16 11:25:05;;;;;;;1.60;1.60;;;22.20;72.50;;;;;;4989758;28;20025;-82
2023/06/16 11:27:31;;;;;;;1.75;1.65;;;22.20;72.50;;;;;;5014471;28;20041;-82
2023/06/16 11:30:01;;;;;;;1.95;1.85;;;22.20;72.50;;;;;;5008656;28;20046;-82
2023/06/16 11:32:29;;;;;;;2.15;2.05;;;22.20;72.60;;;;;;4989789;28;20625;-82
2023/06/16 11:34:55;;;;;;;1.90;1.80;;;22.30;72.40;;;;;;5006124;28;20411;-82
2023/06/16 11:37:21;;;;;;;2.30;2.20;;;22.30;73.50;;;;;;4989127;28;20068;-82
2023/06/16 11:39:47;;;;;;;2.13;2.03;;;22.30;72.70;;;;;;5003872;28;20037;-82
2023/06/16 11:42:14;;;;;;;2.03;1.92;;;22.30;72.50;;;;;;5020812;28;20049;-82
2023/06/16 11:44:39;;;;;;;1.98;1.88;;;22.30;72.50;;;;;;5007276;28;20037;-82
2023/06/16 11:47:05;;;;;;;2.55;2.45;;;22.30;72.20;;;;;;5005852;28;20042;-82
2023/06/16 11:49:36;;;;;;;2.20;2.10;;;22.30;72.50;;;;;;5003971;28;20042;-82
2023/06/16 11:52:05;;;;;;;2.40;2.30;;;22.30;73.40;;;;;;5001069;28;20042;-81
2023/06/16 11:54:31;;;;;;;2.30;2.10;;;22.30;72.50;;;;;;5006227;28;20046;-80
2023/06/16 11:57:03;;;;;;;2.10;2.00;;;22.30;73.60;;;;;;5019936;28;20052;-81
2023/06/16 11:59:30;;;;;;;3.72;1.95;;;22.40;73.90;;;;;;5005027;28;20061;-82
2023/06/16 12:02:05;;;;;;;2.05;1.95;;;22.30;73.90;;;;;;4990313;28;20044;-82
2023/06/16 12:04:33;;;;;;;2.22;2.13;;;22.40;73.50;;;;;;5001854;28;20042;-83
2023/06/16 12:06:59;;;;;;;2.13;2.03;;;22.40;74.30;;;;;;4993222;28;20049;-80
2023/06/16 12:09:36;;;;;;;2.20;2.10;;;22.40;74.40;;;;;;4990204;28;20195;-78
2023/06/16 12:12:03;;;;;;;2.10;2.00;;;22.40;74.50;;;;;;5004609;28;20053;-79
2023/06/16 12:14:29;;;;;;;2.22;2.13;;;22.40;74.20;;;;;;5003926;28;20057;-82
2023/06/16 12:16:55;;;;;;;2.50;2.30;;;22.40;74.10;;;;;;5001817;28;20037;-83
2023/06/16 12:19:20;;;;;;;2.20;2.10;;;22.40;74.10;;;;;;5000926;28;20042;-82
2023/06/16 12:21:51;;;;;;;2.25;2.15;;;22.40;73.80;;;;;;4989711;28;20415;-80
2023/06/16 12:24:19;;;;;;;4.55;1.98;;;22.40;74.00;;;;;;5018775;28;20157;-81
2023/06/16 12:26:44;;;;;;;6.15;2.35;;;22.50;73.80;;;;;;5017223;28;20037;-80
2023/06/16 12:29:11;;;;;;;2.10;2.00;;;22.50;74.30;;;;;;4653275;28;9999964;-81
2023/06/16 12:31:50;;;;;;;2.45;2.25;;;22.50;74.00;;;;;;5013231;28;20118;-80
2023/06/16 12:34:33;;;;;;;3.60;2.17;;;22.50;74.00;;;;;;4984033;28;20081;-81
2023/06/16 12:37:12;;;;;;;2.10;2.00;;;22.50;74.10;;;;;;4981513;28;20065;-81
2023/06/16 12:39:38;;;;;;;2.22;2.10;;;22.50;74.20;;;;;;4985277;28;20046;-80
2023/06/16 12:42:09;;;;;;;2.13;2.03;;;22.60;74.00;;;;;;5002589;28;20068;-80